Terminal Aerodrome Forecast
Issued by NWS

Home | Current Version | Previous Version | Text Only | Print | Product List | Glossary On
Versions: 1 2 3 4 5 6 7 8 9 10 11 12 13
000
FTUS46 KPDT 012300
TAFALW
TAF
KALW 012320Z 0200/0224 24011KT P6SM VCSH BKN060 OVC080
     FM020300 18009KT P6SM BKN070 OVC090
     FM021200 19009KT P6SM SCT150 BKN250
     FM021800 23010KT P6SM SCT250=

USA.gov is the U.S. government's official web portal to all federal, state and local government web resources and services.